Aérodrome :
LOGIN :

S'inscrire | Disclaimer

   EN    FR    IT 

 










Légende :    VFR   VFR Marginal   IFR   IFR Intensif   IFR Très Intensif
Visi : 
Plafond : 
>= 8 km
>= 3000ft
5 à 8 km
1000 à 3000 ft
1500m à 5 km
500 à 1000 ft
800 à 1500m
200 à 500 ft
< 800m
< 200 ft
Symboles :   Orages  Brouillard  Fortes neiges  Fortes précipitations  Vent > 20 kt
SIGMETs :   Divers  Orages  Givrage  Turbulence  Onde Orograph.  Cendres Volcan.






- Altitude de l'aérodrome : 499 ft
- Code IATA : TLS


LFBO - Toulouse / Blagnac

DERNIER METAR :
  • 241430Z AUTO 13017KT CAVOK 13/07 Q1019 NOSIG

METARs EXPIRÉS :
  • 241400Z AUTO 14017KT 100V160 9000 NSC 13/06 Q1019 TEMPO 14018G28KT
  • 241330Z AUTO 14023KT 100V160 8000 NSC 13/05 Q1019 BECMG 14012KT
  • 241300Z AUTO 14017KT 8000 NSC 14/05 Q1019 TEMPO 14018G28KT
  • 241230Z AUTO 15016KT 9000 NSC 13/05 Q1020 TEMPO 14018G28KT
  • 241200Z AUTO 14020KT CAVOK 13/05 Q1020 TEMPO 14018G28KT

TAF TAF LFBO
Valide du 24 à 12h jusqu'au 25 à 18h UTC


241100Z 2412/2518 14012KT CAVOK
TEMPO 2412/2415 14018G28KT
PROB40 2502/2508 BKN012
ATIS : +33 5 62 74 66 36



MET'MAP, la Météo Aéronautique d'un coup d'oeil ! - Copyright ORBIFLY Décembre 2007 - Disclaimer

ORBIFLY MET'MAP TEAM :

Programmation & Développement : Alexandra Zaïnal
Sur une idée originale de : Baudouin d'Aumeries
Assistance à la programmation : Marc-Olivier Méhu
Soutien technique & logistique : Manuel Goepfert

Contact : metmap@orbifly.com




SOURCES & CREDITS :

   NOAA